Gig Harbor, WA

2:47 PM PDT on June 03, 2015 (GMT -0700)
Artondale | | Change Station
CLOSE
Current Station
Personal Weather Station
Location: Gig Harbor, WA
Elevation: 292 ft
Nearby Weather Stations

Elev 292 ft 47.29 °N, 122.63 °W | Updated 11 minutes ago

Overcast
Overcast
64.9 °F
Feels Like 64.9 °F
N
2.7
Wind Variable Wind from ESE

Today
High -- | Low -- °F
--% Chance of Precip.
Yesterday
High -- | Low -- °F
Precip. -- in
5:17 AM 9:00 PM
Full, 98% visible
Pressure 30.06 in
Visibility 10.0 miles
Clouds Mostly Cloudy 2800 ft
Mostly Cloudy 7000 ft
Dew Point 51 °F
Humidity 60%
Rainfall 0.00 in
Snow Depth Not available.
UV 6 out of 12
Pollen 4.00 out of 12
Air Quality Not available.
Flu Activity Sporadic
METAR KTIW 032053Z COR 30005KT 10SM BKN028 BKN070 18/09 A3006 RMK AO2 SLP179 T01780094 58006

More Conditions Fewer Conditions

Pressure 30.06 in
Visibility 10.0 miles
Clouds Mostly Cloudy 2800 ft
Mostly Cloudy 7000 ft
Dew Point 51 °F
Humidity 60%
Rainfall 0.00 in
Snow Depth Not available.
UV 6 out of 12
Pollen 4.00 out of 12
Air Quality Not available.
Flu Activity Sporadic
METAR KTIW 032053Z COR 30005KT 10SM BKN028 BKN070 18/09 A3006 RMK AO2 SLP179 T01780094 58006

More Conditions Fewer Conditions

10-Day Weather Forecast

×

Almanac

Astronomy

Jun. 03, 2015 Rise Set
Actual Time
Civil Twilight
Nautical Twilight
Astronomical Twilight
Moon
Length of Visible Light
Length of Day
Tomorrow will be .
, % of the Moon is Illuminated

Today's Extremes

State Highs State Lows

Community

WunderPhotos

Upload Photos

1,826,291 photos uploaded!

WunderBlogs® & News

Nearby

Air Quality

  Air Quality AQ Index Pollutant
Not available.

Snow Depth

Station Depth Elevation

Earthquake Activity

City Distance Mag. Time & Date
Minimum magnitude displayed is 2.5.

Coastal Water Temperatures

Place Temperature

Stations

Nearby Weather Stations

Station Location Temp. Windchill Dew Point Humidity Wind Precip. Elev Updated Type